sensor_id;sensor_type;location;lat;lon;timestamp;temperature;humidity
16060;DHT22;8134;49.552;7.632;2023-08-21T00:00:59;22.30;99.90
16060;DHT22;8134;49.552;7.632;2023-08-21T00:03:27;22.30;99.90
16060;DHT22;8134;49.552;7.632;2023-08-21T00:05:52;22.30;99.90
16060;DHT22;8134;49.552;7.632;2023-08-21T00:08:18;22.20;99.90
16060;DHT22;8134;49.552;7.632;2023-08-21T00:10:43;22.20;99.90
16060;DHT22;8134;49.552;7.632;2023-08-21T00:13:09;22.20;99.90
16060;DHT22;8134;49.552;7.632;2023-08-21T00:15:37;22.20;99.90
16060;DHT22;8134;49.552;7.632;2023-08-21T00:18:02;22.20;99.90
16060;DHT22;8134;49.552;7.632;2023-08-21T00:20:28;22.10;99.90
16060;DHT22;8134;49.552;7.632;2023-08-21T00:22:53;22.10;99.90
16060;DHT22;8134;49.552;7.632;2023-08-21T00:25:20;22.10;99.90
16060;DHT22;8134;49.552;7.632;2023-08-21T00:27:46;22.10;99.90
16060;DHT22;8134;49.552;7.632;2023-08-21T00:30:11;22.10;99.90
16060;DHT22;8134;49.552;7.632;2023-08-21T00:32:40;22.00;99.90
16060;DHT22;8134;49.552;7.632;2023-08-21T00:35:05;22.00;99.90
16060;DHT22;8134;49.552;7.632;2023-08-21T00:37:31;22.00;99.90
16060;DHT22;8134;49.552;7.632;2023-08-21T00:39:57;22.00;99.90
16060;DHT22;8134;49.552;7.632;2023-08-21T00:42:22;22.00;99.90
16060;DHT22;8134;49.552;7.632;2023-08-21T00:44:47;21.90;99.90
16060;DHT22;8134;49.552;7.632;2023-08-21T00:47:13;21.90;99.90
16060;DHT22;8134;49.552;7.632;2023-08-21T00:49:38;21.90;99.90
16060;DHT22;8134;49.552;7.632;2023-08-21T00:52:05;21.90;99.90
16060;DHT22;8134;49.552;7.632;2023-08-21T00:54:32;21.80;99.90
16060;DHT22;8134;49.552;7.632;2023-08-21T00:56:57;21.80;99.90
16060;DHT22;8134;49.552;7.632;2023-08-21T00:59:23;21.80;99.90
16060;DHT22;8134;49.552;7.632;2023-08-21T01:01:48;21.80;99.90
16060;DHT22;8134;49.552;7.632;2023-08-21T01:04:14;21.70;99.90
16060;DHT22;8134;49.552;7.632;2023-08-21T01:06:39;21.80;99.90
16060;DHT22;8134;49.552;7.632;2023-08-21T01:11:45;21.70;99.90
16060;DHT22;8134;49.552;7.632;2023-08-21T01:14:16;21.70;99.90
16060;DHT22;8134;49.552;7.632;2023-08-21T01:16:42;21.70;99.90
16060;DHT22;8134;49.552;7.632;2023-08-21T01:19:10;21.60;99.90
16060;DHT22;8134;49.552;7.632;2023-08-21T01:21:40;21.60;99.90
16060;DHT22;8134;49.552;7.632;2023-08-21T01:24:05;21.60;99.90
16060;DHT22;8134;49.552;7.632;2023-08-21T01:26:31;21.60;99.90
16060;DHT22;8134;49.552;7.632;2023-08-21T01:28:56;21.60;99.90
16060;DHT22;8134;49.552;7.632;2023-08-21T01:31:26;21.60;99.90
16060;DHT22;8134;49.552;7.632;2023-08-21T01:33:55;21.60;99.90
16060;DHT22;8134;49.552;7.632;2023-08-21T01:36:23;21.60;99.90
16060;DHT22;8134;49.552;7.632;2023-08-21T01:38:49;21.50;99.90
16060;DHT22;8134;49.552;7.632;2023-08-21T01:41:15;21.50;99.90
16060;DHT22;8134;49.552;7.632;2023-08-21T01:43:40;21.50;99.90
16060;DHT22;8134;49.552;7.632;2023-08-21T01:46:06;21.50;99.90
16060;DHT22;8134;49.552;7.632;2023-08-21T01:48:31;21.40;99.90
16060;DHT22;8134;49.552;7.632;2023-08-21T01:50:57;21.40;99.90
16060;DHT22;8134;49.552;7.632;2023-08-21T01:53:22;21.40;99.90
16060;DHT22;8134;49.552;7.632;2023-08-21T01:55:48;21.40;99.90
16060;DHT22;8134;49.552;7.632;2023-08-21T01:58:13;21.40;99.90
16060;DHT22;8134;49.552;7.632;2023-08-21T02:00:39;21.30;99.90
16060;DHT22;8134;49.552;7.632;2023-08-21T02:03:05;21.30;99.90
16060;DHT22;8134;49.552;7.632;2023-08-21T02:05:33;21.30;99.90
16060;DHT22;8134;49.552;7.632;2023-08-21T02:08:02;21.20;99.90
16060;DHT22;8134;49.552;7.632;2023-08-21T02:10:27;21.20;99.90
16060;DHT22;8134;49.552;7.632;2023-08-21T02:12:52;21.20;99.90
16060;DHT22;8134;49.552;7.632;2023-08-21T02:15:19;21.20;99.90
16060;DHT22;8134;49.552;7.632;2023-08-21T02:17:47;21.20;99.90
16060;DHT22;8134;49.552;7.632;2023-08-21T02:20:12;21.20;99.90
16060;DHT22;8134;49.552;7.632;2023-08-21T02:22:38;21.20;99.90
16060;DHT22;8134;49.552;7.632;2023-08-21T02:25:03;21.20;99.90
16060;DHT22;8134;49.552;7.632;2023-08-21T02:27:32;21.20;99.90
16060;DHT22;8134;49.552;7.632;2023-08-21T02:29:57;21.10;99.90
16060;DHT22;8134;49.552;7.632;2023-08-21T02:32:23;21.10;99.90
16060;DHT22;8134;49.552;7.632;2023-08-21T02:34:48;21.10;99.90
16060;DHT22;8134;49.552;7.632;2023-08-21T02:37:14;21.10;99.90
16060;DHT22;8134;49.552;7.632;2023-08-21T02:39:39;21.10;99.90
16060;DHT22;8134;49.552;7.632;2023-08-21T02:42:05;21.10;99.90
16060;DHT22;8134;49.552;7.632;2023-08-21T02:44:30;21.00;99.90
16060;DHT22;8134;49.552;7.632;2023-08-21T02:46:56;21.00;99.90
16060;DHT22;8134;49.552;7.632;2023-08-21T02:49:21;21.00;99.90
16060;DHT22;8134;49.552;7.632;2023-08-21T02:51:47;21.00;99.90
16060;DHT22;8134;49.552;7.632;2023-08-21T02:54:12;21.00;99.90
16060;DHT22;8134;49.552;7.632;2023-08-21T02:56:38;21.00;99.90
16060;DHT22;8134;49.552;7.632;2023-08-21T02:59:03;20.90;99.90
16060;DHT22;8134;49.552;7.632;2023-08-21T03:01:29;20.90;99.90
16060;DHT22;8134;49.552;7.632;2023-08-21T03:03:54;20.90;99.90
16060;DHT22;8134;49.552;7.632;2023-08-21T03:06:20;20.90;99.90
16060;DHT22;8134;49.552;7.632;2023-08-21T03:08:46;20.90;99.90
16060;DHT22;8134;49.552;7.632;2023-08-21T03:11:11;20.90;99.90
16060;DHT22;8134;49.552;7.632;2023-08-21T03:13:37;20.90;99.90
16060;DHT22;8134;49.552;7.632;2023-08-21T03:16:03;20.80;99.90
16060;DHT22;8134;49.552;7.632;2023-08-21T03:18:30;20.80;99.90
16060;DHT22;8134;49.552;7.632;2023-08-21T03:20:56;20.80;99.90
16060;DHT22;8134;49.552;7.632;2023-08-21T03:23:21;20.80;99.90
16060;DHT22;8134;49.552;7.632;2023-08-21T03:25:47;20.80;99.90
16060;DHT22;8134;49.552;7.632;2023-08-21T03:28:12;20.70;99.90
16060;DHT22;8134;49.552;7.632;2023-08-21T03:30:41;20.70;99.90
16060;DHT22;8134;49.552;7.632;2023-08-21T03:33:07;20.70;99.90
16060;DHT22;8134;49.552;7.632;2023-08-21T03:35:33;20.70;99.90
16060;DHT22;8134;49.552;7.632;2023-08-21T03:37:58;20.70;99.90
16060;DHT22;8134;49.552;7.632;2023-08-21T03:40:24;20.60;99.90
16060;DHT22;8134;49.552;7.632;2023-08-21T03:42:49;20.60;99.90
16060;DHT22;8134;49.552;7.632;2023-08-21T03:45:15;20.60;99.90
16060;DHT22;8134;49.552;7.632;2023-08-21T03:47:40;20.60;99.90
16060;DHT22;8134;49.552;7.632;2023-08-21T03:50:06;20.50;99.90
16060;DHT22;8134;49.552;7.632;2023-08-21T03:52:32;20.50;99.90
16060;DHT22;8134;49.552;7.632;2023-08-21T03:54:57;20.50;99.90
16060;DHT22;8134;49.552;7.632;2023-08-21T03:57:23;20.50;99.90
16060;DHT22;8134;49.552;7.632;2023-08-21T03:59:48;20.50;99.90
16060;DHT22;8134;49.552;7.632;2023-08-21T04:02:14;20.50;99.90
16060;DHT22;8134;49.552;7.632;2023-08-21T04:04:39;20.50;99.90
16060;DHT22;8134;49.552;7.632;2023-08-21T04:07:05;20.50;99.90
16060;DHT22;8134;49.552;7.632;2023-08-21T04:09:31;20.50;99.90
16060;DHT22;8134;49.552;7.632;2023-08-21T04:11:56;20.50;99.90
16060;DHT22;8134;49.552;7.632;2023-08-21T04:14:22;20.50;99.90
16060;DHT22;8134;49.552;7.632;2023-08-21T04:16:47;20.40;99.90
16060;DHT22;8134;49.552;7.632;2023-08-21T04:19:13;20.40;99.90
16060;DHT22;8134;49.552;7.632;2023-08-21T04:21:39;20.40;99.90
16060;DHT22;8134;49.552;7.632;2023-08-21T04:24:04;20.30;99.90
16060;DHT22;8134;49.552;7.632;2023-08-21T04:26:30;20.30;99.90
16060;DHT22;8134;49.552;7.632;2023-08-21T04:28:55;20.30;99.90
16060;DHT22;8134;49.552;7.632;2023-08-21T04:31:21;20.30;99.90
16060;DHT22;8134;49.552;7.632;2023-08-21T04:33:47;20.30;99.90
16060;DHT22;8134;49.552;7.632;2023-08-21T04:36:15;20.30;99.90
16060;DHT22;8134;49.552;7.632;2023-08-21T04:38:41;20.30;99.90
16060;DHT22;8134;49.552;7.632;2023-08-21T04:41:07;20.30;99.90
16060;DHT22;8134;49.552;7.632;2023-08-21T04:43:33;20.30;99.90
16060;DHT22;8134;49.552;7.632;2023-08-21T04:45:59;20.30;99.90
16060;DHT22;8134;49.552;7.632;2023-08-21T04:48:24;20.30;99.90
16060;DHT22;8134;49.552;7.632;2023-08-21T04:50:50;20.30;99.90
16060;DHT22;8134;49.552;7.632;2023-08-21T04:53:15;20.30;99.90
16060;DHT22;8134;49.552;7.632;2023-08-21T04:55:41;20.30;99.90
16060;DHT22;8134;49.552;7.632;2023-08-21T04:58:07;20.30;99.90
16060;DHT22;8134;49.552;7.632;2023-08-21T05:00:32;20.30;99.90
16060;DHT22;8134;49.552;7.632;2023-08-21T05:02:58;20.30;99.90
16060;DHT22;8134;49.552;7.632;2023-08-21T05:05:24;20.20;99.90
16060;DHT22;8134;49.552;7.632;2023-08-21T05:07:49;20.20;99.90
16060;DHT22;8134;49.552;7.632;2023-08-21T05:10:17;20.20;99.90
16060;DHT22;8134;49.552;7.632;2023-08-21T05:12:43;20.20;99.90
16060;DHT22;8134;49.552;7.632;2023-08-21T05:15:09;20.20;99.90
16060;DHT22;8134;49.552;7.632;2023-08-21T05:17:34;20.20;99.90
16060;DHT22;8134;49.552;7.632;2023-08-21T05:20:00;20.20;99.90
16060;DHT22;8134;49.552;7.632;2023-08-21T05:22:25;20.20;99.90
16060;DHT22;8134;49.552;7.632;2023-08-21T05:24:51;20.20;99.90
16060;DHT22;8134;49.552;7.632;2023-08-21T05:27:16;20.20;99.90
16060;DHT22;8134;49.552;7.632;2023-08-21T05:29:42;20.30;99.90
16060;DHT22;8134;49.552;7.632;2023-08-21T05:32:07;20.30;99.90
16060;DHT22;8134;49.552;7.632;2023-08-21T05:34:33;20.30;99.90
16060;DHT22;8134;49.552;7.632;2023-08-21T05:36:58;20.30;99.90
16060;DHT22;8134;49.552;7.632;2023-08-21T05:39:24;20.30;99.90
16060;DHT22;8134;49.552;7.632;2023-08-21T05:41:49;20.30;99.90
16060;DHT22;8134;49.552;7.632;2023-08-21T05:44:15;20.30;99.90
16060;DHT22;8134;49.552;7.632;2023-08-21T05:46:40;20.30;99.90
16060;DHT22;8134;49.552;7.632;2023-08-21T05:49:06;20.30;99.90
16060;DHT22;8134;49.552;7.632;2023-08-21T05:51:31;20.30;99.90
16060;DHT22;8134;49.552;7.632;2023-08-21T05:53:57;20.30;99.90
16060;DHT22;8134;49.552;7.632;2023-08-21T05:56:22;20.40;99.90
16060;DHT22;8134;49.552;7.632;2023-08-21T05:58:49;20.40;99.90
16060;DHT22;8134;49.552;7.632;2023-08-21T06:01:14;20.40;99.90
16060;DHT22;8134;49.552;7.632;2023-08-21T06:03:40;20.40;99.90
16060;DHT22;8134;49.552;7.632;2023-08-21T06:06:05;20.40;99.90
16060;DHT22;8134;49.552;7.632;2023-08-21T06:08:31;20.40;99.90
16060;DHT22;8134;49.552;7.632;2023-08-21T06:10:56;20.40;99.90
16060;DHT22;8134;49.552;7.632;2023-08-21T06:13:22;20.40;99.90
16060;DHT22;8134;49.552;7.632;2023-08-21T06:15:47;20.40;99.90
16060;DHT22;8134;49.552;7.632;2023-08-21T06:18:13;20.50;99.90
16060;DHT22;8134;49.552;7.632;2023-08-21T06:20:41;20.50;99.90
16060;DHT22;8134;49.552;7.632;2023-08-21T06:23:07;20.50;99.90
16060;DHT22;8134;49.552;7.632;2023-08-21T06:25:33;20.50;99.90
16060;DHT22;8134;49.552;7.632;2023-08-21T06:27:58;20.50;99.90
16060;DHT22;8134;49.552;7.632;2023-08-21T06:30:24;20.60;99.90
16060;DHT22;8134;49.552;7.632;2023-08-21T06:32:50;20.60;99.90
16060;DHT22;8134;49.552;7.632;2023-08-21T06:35:15;20.60;99.90
16060;DHT22;8134;49.552;7.632;2023-08-21T06:37:41;20.70;99.90
16060;DHT22;8134;49.552;7.632;2023-08-21T06:40:07;20.70;99.90
16060;DHT22;8134;49.552;7.632;2023-08-21T06:42:32;20.80;99.90
16060;DHT22;8134;49.552;7.632;2023-08-21T06:44:58;20.80;99.90
16060;DHT22;8134;49.552;7.632;2023-08-21T06:47:23;20.90;99.90
16060;DHT22;8134;49.552;7.632;2023-08-21T06:49:49;20.90;99.90
16060;DHT22;8134;49.552;7.632;2023-08-21T06:52:14;21.00;99.90
16060;DHT22;8134;49.552;7.632;2023-08-21T06:54:40;21.00;99.90
16060;DHT22;8134;49.552;7.632;2023-08-21T06:57:05;21.10;99.90
16060;DHT22;8134;49.552;7.632;2023-08-21T06:59:31;21.10;99.90
16060;DHT22;8134;49.552;7.632;2023-08-21T07:02:01;21.20;99.90
16060;DHT22;8134;49.552;7.632;2023-08-21T07:04:27;21.30;99.90
16060;DHT22;8134;49.552;7.632;2023-08-21T07:06:53;21.30;99.90
16060;DHT22;8134;49.552;7.632;2023-08-21T07:09:19;21.40;99.90
16060;DHT22;8134;49.552;7.632;2023-08-21T07:11:44;21.40;99.90
16060;DHT22;8134;49.552;7.632;2023-08-21T07:14:10;21.50;99.90
16060;DHT22;8134;49.552;7.632;2023-08-21T07:16:37;21.50;99.90
16060;DHT22;8134;49.552;7.632;2023-08-21T07:19:03;21.60;99.90
16060;DHT22;8134;49.552;7.632;2023-08-21T07:21:28;21.60;99.90
16060;DHT22;8134;49.552;7.632;2023-08-21T07:23:54;21.70;99.90
16060;DHT22;8134;49.552;7.632;2023-08-21T07:26:19;21.70;99.90
16060;DHT22;8134;49.552;7.632;2023-08-21T07:28:45;21.70;99.90
16060;DHT22;8134;49.552;7.632;2023-08-21T07:31:10;21.80;99.90
16060;DHT22;8134;49.552;7.632;2023-08-21T07:33:36;21.80;99.90
16060;DHT22;8134;49.552;7.632;2023-08-21T07:36:02;21.90;99.90
16060;DHT22;8134;49.552;7.632;2023-08-21T07:38:28;21.90;99.90
16060;DHT22;8134;49.552;7.632;2023-08-21T07:41:07;22.00;99.90
16060;DHT22;8134;49.552;7.632;2023-08-21T07:43:35;22.10;99.90
16060;DHT22;8134;49.552;7.632;2023-08-21T07:46:04;22.10;99.90
16060;DHT22;8134;49.552;7.632;2023-08-21T07:48:30;22.20;99.90
16060;DHT22;8134;49.552;7.632;2023-08-21T07:50:55;22.20;99.90
16060;DHT22;8134;49.552;7.632;2023-08-21T07:53:21;22.30;99.90
16060;DHT22;8134;49.552;7.632;2023-08-21T07:55:47;22.30;99.90
16060;DHT22;8134;49.552;7.632;2023-08-21T07:58:12;22.40;99.90
16060;DHT22;8134;49.552;7.632;2023-08-21T08:00:38;22.40;99.90
16060;DHT22;8134;49.552;7.632;2023-08-21T08:03:04;22.50;99.90
16060;DHT22;8134;49.552;7.632;2023-08-21T08:05:31;22.50;99.90
16060;DHT22;8134;49.552;7.632;2023-08-21T08:07:56;22.60;99.90
16060;DHT22;8134;49.552;7.632;2023-08-21T08:10:22;22.70;99.90
16060;DHT22;8134;49.552;7.632;2023-08-21T08:12:47;22.80;99.90
16060;DHT22;8134;49.552;7.632;2023-08-21T08:15:13;22.80;99.90
16060;DHT22;8134;49.552;7.632;2023-08-21T08:17:38;23.00;99.90
16060;DHT22;8134;49.552;7.632;2023-08-21T08:20:04;23.00;99.90
16060;DHT22;8134;49.552;7.632;2023-08-21T08:22:31;23.10;99.90
16060;DHT22;8134;49.552;7.632;2023-08-21T08:24:57;23.10;99.90
16060;DHT22;8134;49.552;7.632;2023-08-21T08:27:22;23.20;99.90
16060;DHT22;8134;49.552;7.632;2023-08-21T08:29:48;23.30;99.90
16060;DHT22;8134;49.552;7.632;2023-08-21T08:32:14;23.30;99.90
16060;DHT22;8134;49.552;7.632;2023-08-21T08:34:45;23.40;99.90
16060;DHT22;8134;49.552;7.632;2023-08-21T08:37:12;23.50;99.90
16060;DHT22;8134;49.552;7.632;2023-08-21T08:39:37;23.50;99.90
16060;DHT22;8134;49.552;7.632;2023-08-21T08:42:03;23.60;99.90
16060;DHT22;8134;49.552;7.632;2023-08-21T08:44:29;23.60;99.90
16060;DHT22;8134;49.552;7.632;2023-08-21T08:46:55;23.70;99.90
16060;DHT22;8134;49.552;7.632;2023-08-21T08:49:21;23.80;99.90
16060;DHT22;8134;49.552;7.632;2023-08-21T08:51:48;23.90;99.90
16060;DHT22;8134;49.552;7.632;2023-08-21T08:54:14;24.00;99.90
16060;DHT22;8134;49.552;7.632;2023-08-21T08:56:40;24.00;99.90
16060;DHT22;8134;49.552;7.632;2023-08-21T09:27:16;24.80;99.90
16060;DHT22;8134;49.552;7.632;2023-08-21T09:29:42;24.90;99.90
16060;DHT22;8134;49.552;7.632;2023-08-21T09:32:07;25.00;99.90
16060;DHT22;8134;49.552;7.632;2023-08-21T09:34:33;25.00;99.90
16060;DHT22;8134;49.552;7.632;2023-08-21T09:36:59;25.10;99.90
16060;DHT22;8134;49.552;7.632;2023-08-21T09:39:27;25.20;99.90
16060;DHT22;8134;49.552;7.632;2023-08-21T09:41:57;25.20;99.90
16060;DHT22;8134;49.552;7.632;2023-08-21T09:44:23;25.30;99.90
16060;DHT22;8134;49.552;7.632;2023-08-21T09:46:49;25.30;99.90
16060;DHT22;8134;49.552;7.632;2023-08-21T09:49:15;25.30;99.90
16060;DHT22;8134;49.552;7.632;2023-08-21T09:51:41;25.30;99.90
16060;DHT22;8134;49.552;7.632;2023-08-21T09:54:06;25.40;99.90
16060;DHT22;8134;49.552;7.632;2023-08-21T09:56:32;25.40;99.90
16060;DHT22;8134;49.552;7.632;2023-08-21T09:58:58;25.40;99.90
16060;DHT22;8134;49.552;7.632;2023-08-21T10:01:23;25.50;99.90
16060;DHT22;8134;49.552;7.632;2023-08-21T10:03:49;25.50;99.90
16060;DHT22;8134;49.552;7.632;2023-08-21T10:06:17;25.60;99.90
16060;DHT22;8134;49.552;7.632;2023-08-21T10:08:46;25.70;99.90
16060;DHT22;8134;49.552;7.632;2023-08-21T10:11:11;25.70;99.90
16060;DHT22;8134;49.552;7.632;2023-08-21T10:13:37;25.70;99.90
16060;DHT22;8134;49.552;7.632;2023-08-21T10:16:04;25.70;99.90
16060;DHT22;8134;49.552;7.632;2023-08-21T10:18:34;25.80;99.90
16060;DHT22;8134;49.552;7.632;2023-08-21T10:21:13;25.90;99.90
16060;DHT22;8134;49.552;7.632;2023-08-21T10:23:39;25.90;99.90
16060;DHT22;8134;49.552;7.632;2023-08-21T10:26:06;26.00;99.90
16060;DHT22;8134;49.552;7.632;2023-08-21T10:31:35;26.10;99.90
16060;DHT22;8134;49.552;7.632;2023-08-21T10:34:02;26.20;99.90
16060;DHT22;8134;49.552;7.632;2023-08-21T10:39:03;26.30;99.90
16060;DHT22;8134;49.552;7.632;2023-08-21T10:41:29;26.40;99.90
16060;DHT22;8134;49.552;7.632;2023-08-21T10:43:55;26.40;99.90
16060;DHT22;8134;49.552;7.632;2023-08-21T10:46:20;26.40;99.90
16060;DHT22;8134;49.552;7.632;2023-08-21T10:48:46;26.40;99.90
16060;DHT22;8134;49.552;7.632;2023-08-21T10:51:11;26.30;99.90
16060;DHT22;8134;49.552;7.632;2023-08-21T10:53:38;26.30;99.90
16060;DHT22;8134;49.552;7.632;2023-08-21T10:56:06;26.30;99.90
16060;DHT22;8134;49.552;7.632;2023-08-21T10:58:40;26.40;99.90
16060;DHT22;8134;49.552;7.632;2023-08-21T11:01:06;26.50;99.90
16060;DHT22;8134;49.552;7.632;2023-08-21T11:03:31;26.50;99.90
16060;DHT22;8134;49.552;7.632;2023-08-21T11:06:18;26.50;99.90
16060;DHT22;8134;49.552;7.632;2023-08-21T11:08:43;26.50;99.90
16060;DHT22;8134;49.552;7.632;2023-08-21T11:11:09;26.70;99.90
16060;DHT22;8134;49.552;7.632;2023-08-21T11:13:35;26.80;99.90
16060;DHT22;8134;49.552;7.632;2023-08-21T11:16:01;26.90;99.90
16060;DHT22;8134;49.552;7.632;2023-08-21T11:18:34;27.00;99.90
16060;DHT22;8134;49.552;7.632;2023-08-21T11:21:07;27.10;99.90
16060;DHT22;8134;49.552;7.632;2023-08-21T11:23:40;27.20;99.90
16060;DHT22;8134;49.552;7.632;2023-08-21T11:26:06;27.30;99.90
16060;DHT22;8134;49.552;7.632;2023-08-21T11:28:32;27.40;99.90
16060;DHT22;8134;49.552;7.632;2023-08-21T11:30:58;27.50;99.90
16060;DHT22;8134;49.552;7.632;2023-08-21T11:33:25;27.60;99.90
16060;DHT22;8134;49.552;7.632;2023-08-21T11:35:51;27.60;99.90
16060;DHT22;8134;49.552;7.632;2023-08-21T11:38:19;27.70;99.90
16060;DHT22;8134;49.552;7.632;2023-08-21T11:40:51;27.80;99.90
16060;DHT22;8134;49.552;7.632;2023-08-21T11:43:17;27.90;99.90
16060;DHT22;8134;49.552;7.632;2023-08-21T11:45:44;27.90;99.90
16060;DHT22;8134;49.552;7.632;2023-08-21T11:48:10;28.00;99.90
16060;DHT22;8134;49.552;7.632;2023-08-21T11:50:35;28.20;99.90
16060;DHT22;8134;49.552;7.632;2023-08-21T11:53:02;28.30;99.90
16060;DHT22;8134;49.552;7.632;2023-08-21T11:55:27;28.50;99.90
16060;DHT22;8134;49.552;7.632;2023-08-21T11:57:54;28.60;99.90
16060;DHT22;8134;49.552;7.632;2023-08-21T12:00:26;28.80;99.90
16060;DHT22;8134;49.552;7.632;2023-08-21T12:02:55;28.80;99.90
16060;DHT22;8134;49.552;7.632;2023-08-21T12:05:21;28.80;99.90
16060;DHT22;8134;49.552;7.632;2023-08-21T12:07:47;28.70;99.90
16060;DHT22;8134;49.552;7.632;2023-08-21T12:10:13;28.80;99.90
16060;DHT22;8134;49.552;7.632;2023-08-21T12:12:38;28.90;99.90
16060;DHT22;8134;49.552;7.632;2023-08-21T12:15:04;29.00;99.90
16060;DHT22;8134;49.552;7.632;2023-08-21T12:17:29;29.00;99.90
16060;DHT22;8134;49.552;7.632;2023-08-21T12:19:58;29.20;99.90
16060;DHT22;8134;49.552;7.632;2023-08-21T12:22:23;29.30;99.90
16060;DHT22;8134;49.552;7.632;2023-08-21T12:24:49;29.40;99.90
16060;DHT22;8134;49.552;7.632;2023-08-21T12:27:14;29.40;99.90
16060;DHT22;8134;49.552;7.632;2023-08-21T12:29:41;29.40;99.90
16060;DHT22;8134;49.552;7.632;2023-08-21T12:32:06;29.40;99.90
16060;DHT22;8134;49.552;7.632;2023-08-21T12:34:32;29.40;99.90
16060;DHT22;8134;49.552;7.632;2023-08-21T12:36:57;29.60;99.90
16060;DHT22;8134;49.552;7.632;2023-08-21T12:39:23;29.50;99.50
16060;DHT22;8134;49.552;7.632;2023-08-21T12:41:48;29.50;99.10
16060;DHT22;8134;49.552;7.632;2023-08-21T12:44:14;29.50;99.90
16060;DHT22;8134;49.552;7.632;2023-08-21T12:46:40;29.60;99.90
16060;DHT22;8134;49.552;7.632;2023-08-21T12:49:05;29.70;99.90
16060;DHT22;8134;49.552;7.632;2023-08-21T12:51:31;29.70;99.90
16060;DHT22;8134;49.552;7.632;2023-08-21T12:53:57;29.70;99.90
16060;DHT22;8134;49.552;7.632;2023-08-21T12:56:22;29.80;99.90
16060;DHT22;8134;49.552;7.632;2023-08-21T12:58:48;29.90;99.90
16060;DHT22;8134;49.552;7.632;2023-08-21T13:01:13;30.10;99.90
16060;DHT22;8134;49.552;7.632;2023-08-21T13:03:43;30.10;99.90
16060;DHT22;8134;49.552;7.632;2023-08-21T13:06:08;30.20;99.90
16060;DHT22;8134;49.552;7.632;2023-08-21T13:08:34;30.30;99.60
16060;DHT22;8134;49.552;7.632;2023-08-21T13:10:59;30.40;99.50
16060;DHT22;8134;49.552;7.632;2023-08-21T13:13:25;30.40;99.90
16060;DHT22;8134;49.552;7.632;2023-08-21T13:15:51;30.40;99.80
16060;DHT22;8134;49.552;7.632;2023-08-21T13:18:19;30.50;99.60
16060;DHT22;8134;49.552;7.632;2023-08-21T13:20:44;30.50;98.30
16060;DHT22;8134;49.552;7.632;2023-08-21T13:23:10;30.60;98.70
16060;DHT22;8134;49.552;7.632;2023-08-21T13:25:35;30.60;99.80
16060;DHT22;8134;49.552;7.632;2023-08-21T13:28:01;30.70;99.90
16060;DHT22;8134;49.552;7.632;2023-08-21T13:30:27;30.70;98.40
16060;DHT22;8134;49.552;7.632;2023-08-21T13:32:52;30.70;99.20
16060;DHT22;8134;49.552;7.632;2023-08-21T13:35:18;30.80;99.00
16060;DHT22;8134;49.552;7.632;2023-08-21T13:37:46;30.90;99.10
16060;DHT22;8134;49.552;7.632;2023-08-21T13:40:11;30.80;98.00
16060;DHT22;8134;49.552;7.632;2023-08-21T13:42:39;30.70;98.70
16060;DHT22;8134;49.552;7.632;2023-08-21T13:45:09;30.80;98.40
16060;DHT22;8134;49.552;7.632;2023-08-21T13:47:41;30.90;99.10
16060;DHT22;8134;49.552;7.632;2023-08-21T13:50:07;31.10;98.80
16060;DHT22;8134;49.552;7.632;2023-08-21T13:52:33;31.20;97.80
16060;DHT22;8134;49.552;7.632;2023-08-21T13:54:59;31.30;97.90
16060;DHT22;8134;49.552;7.632;2023-08-21T13:57:25;31.30;97.10
16060;DHT22;8134;49.552;7.632;2023-08-21T13:59:51;31.50;96.90
16060;DHT22;8134;49.552;7.632;2023-08-21T14:02:16;31.60;98.00
16060;DHT22;8134;49.552;7.632;2023-08-21T14:04:44;31.70;97.80
16060;DHT22;8134;49.552;7.632;2023-08-21T14:07:09;31.70;97.20
16060;DHT22;8134;49.552;7.632;2023-08-21T14:09:35;31.60;94.40
16060;DHT22;8134;49.552;7.632;2023-08-21T14:12:02;31.50;94.10
16060;DHT22;8134;49.552;7.632;2023-08-21T14:14:27;31.50;93.80
16060;DHT22;8134;49.552;7.632;2023-08-21T14:16:53;31.40;94.20
16060;DHT22;8134;49.552;7.632;2023-08-21T14:19:18;31.50;95.60
16060;DHT22;8134;49.552;7.632;2023-08-21T14:21:44;31.50;95.10
16060;DHT22;8134;49.552;7.632;2023-08-21T14:24:09;31.60;95.40
16060;DHT22;8134;49.552;7.632;2023-08-21T14:26:35;31.60;95.10
16060;DHT22;8134;49.552;7.632;2023-08-21T14:29:00;31.60;93.20
16060;DHT22;8134;49.552;7.632;2023-08-21T14:31:26;31.70;95.50
16060;DHT22;8134;49.552;7.632;2023-08-21T14:33:52;31.80;93.80
16060;DHT22;8134;49.552;7.632;2023-08-21T14:36:18;31.80;95.10
16060;DHT22;8134;49.552;7.632;2023-08-21T14:38:44;31.80;93.90
16060;DHT22;8134;49.552;7.632;2023-08-21T14:41:10;31.80;93.40
16060;DHT22;8134;49.552;7.632;2023-08-21T14:43:40;31.80;95.00
16060;DHT22;8134;49.552;7.632;2023-08-21T14:46:06;31.80;94.40
16060;DHT22;8134;49.552;7.632;2023-08-21T14:48:32;31.90;93.80
16060;DHT22;8134;49.552;7.632;2023-08-21T14:50:57;31.90;94.00
16060;DHT22;8134;49.552;7.632;2023-08-21T14:53:23;31.90;95.30
16060;DHT22;8134;49.552;7.632;2023-08-21T14:55:48;31.90;93.90
16060;DHT22;8134;49.552;7.632;2023-08-21T14:58:14;31.90;94.30
16060;DHT22;8134;49.552;7.632;2023-08-21T15:00:39;32.00;94.30
16060;DHT22;8134;49.552;7.632;2023-08-21T15:03:08;32.10;94.60
16060;DHT22;8134;49.552;7.632;2023-08-21T15:05:36;32.20;95.50
16060;DHT22;8134;49.552;7.632;2023-08-21T15:08:02;32.20;95.50
16060;DHT22;8134;49.552;7.632;2023-08-21T15:10:28;32.20;94.00
16060;DHT22;8134;49.552;7.632;2023-08-21T15:12:53;32.20;93.00
16060;DHT22;8134;49.552;7.632;2023-08-21T15:15:19;32.20;94.30
16060;DHT22;8134;49.552;7.632;2023-08-21T15:17:46;32.20;94.40
16060;DHT22;8134;49.552;7.632;2023-08-21T15:20:11;32.30;94.10
16060;DHT22;8134;49.552;7.632;2023-08-21T15:22:39;32.30;94.20
16060;DHT22;8134;49.552;7.632;2023-08-21T15:25:05;32.20;93.50
16060;DHT22;8134;49.552;7.632;2023-08-21T15:27:30;32.30;94.50
16060;DHT22;8134;49.552;7.632;2023-08-21T15:29:56;32.30;93.80
16060;DHT22;8134;49.552;7.632;2023-08-21T15:32:21;32.40;93.50
16060;DHT22;8134;49.552;7.632;2023-08-21T15:34:47;32.30;94.80
16060;DHT22;8134;49.552;7.632;2023-08-21T15:37:12;32.30;93.20
16060;DHT22;8134;49.552;7.632;2023-08-21T15:39:38;32.30;94.10
16060;DHT22;8134;49.552;7.632;2023-08-21T15:42:04;32.40;93.80
16060;DHT22;8134;49.552;7.632;2023-08-21T15:44:29;32.40;94.20
16060;DHT22;8134;49.552;7.632;2023-08-21T15:46:55;32.40;92.10
16060;DHT22;8134;49.552;7.632;2023-08-21T15:49:20;32.40;92.60
16060;DHT22;8134;49.552;7.632;2023-08-21T15:51:46;32.50;93.30
16060;DHT22;8134;49.552;7.632;2023-08-21T15:54:13;32.50;92.30
16060;DHT22;8134;49.552;7.632;2023-08-21T15:56:39;32.50;92.40
16060;DHT22;8134;49.552;7.632;2023-08-21T15:59:04;32.50;93.10
16060;DHT22;8134;49.552;7.632;2023-08-21T16:01:30;32.50;93.90
16060;DHT22;8134;49.552;7.632;2023-08-21T16:03:55;32.50;93.90
16060;DHT22;8134;49.552;7.632;2023-08-21T16:06:21;32.60;92.20
16060;DHT22;8134;49.552;7.632;2023-08-21T16:08:46;32.50;93.10
16060;DHT22;8134;49.552;7.632;2023-08-21T16:11:12;32.60;93.40
16060;DHT22;8134;49.552;7.632;2023-08-21T16:13:37;32.60;92.10